createdAt,value
2022-11-24T00:00:12.498Z,5.85
2022-11-24T00:02:39.052Z,5.95
2022-11-24T00:05:05.934Z,6.18
2022-11-24T00:07:32.450Z,4.72
2022-11-24T00:09:58.878Z,7.25
2022-11-24T00:12:25.378Z,5.95
2022-11-24T00:14:51.788Z,6.68
2022-11-24T00:17:21.202Z,6.63
2022-11-24T00:19:47.607Z,4.65
2022-11-24T00:22:14.182Z,5.00
2022-11-24T00:24:40.618Z,7.53
2022-11-24T00:27:07.033Z,6.72
2022-11-24T00:29:33.457Z,7.65
2022-11-24T00:31:59.977Z,7.82
2022-11-24T00:34:26.436Z,6.40
2022-11-24T00:36:52.855Z,8.57
2022-11-24T00:39:19.254Z,9.38
2022-11-24T00:41:45.727Z,7.13
2022-11-24T00:44:12.183Z,7.72
2022-11-24T00:46:38.750Z,7.05
2022-11-24T00:49:05.282Z,7.03
2022-11-24T00:51:34.941Z,7.55
2022-11-24T00:54:01.797Z,6.13
2022-11-24T00:56:28.956Z,8.50
2022-11-24T00:58:55.445Z,8.50
2022-11-24T01:01:26.010Z,9.65
2022-11-24T01:03:53.628Z,8.93
2022-11-24T01:06:21.403Z,8.52
2022-11-24T01:08:47.825Z,7.60
2022-11-24T01:11:15.800Z,8.77
2022-11-24T01:13:42.904Z,7.00
2022-11-24T01:16:15.320Z,8.98
2022-11-24T01:18:41.868Z,9.55
2022-11-24T01:21:10.242Z,7.70
2022-11-24T01:23:37.026Z,8.52
2022-11-24T01:26:08.018Z,9.13
2022-11-24T01:28:34.848Z,9.20
2022-11-24T01:31:02.601Z,8.98
2022-11-24T01:33:29.184Z,10.70
2022-11-24T01:35:58.242Z,9.07
2022-11-24T01:38:25.530Z,10.07
2022-11-24T01:41:06.707Z,8.02
2022-11-24T01:43:33.388Z,8.95
2022-11-24T01:46:03.860Z,7.97
2022-11-24T01:48:32.060Z,7.63
2022-11-24T01:51:03.957Z,9.15
2022-11-24T01:53:30.617Z,10.50
2022-11-24T01:55:57.687Z,9.85
2022-11-24T01:58:25.636Z,8.63
2022-11-24T02:00:52.311Z,7.95
2022-11-24T02:03:20.632Z,8.10
2022-11-24T02:05:50.038Z,8.73
2022-11-24T02:08:26.259Z,7.97
2022-11-24T02:10:52.752Z,10.25
2022-11-24T02:13:19.463Z,7.57
2022-11-24T02:15:45.923Z,11.82
2022-11-24T02:18:12.406Z,6.10
2022-11-24T02:20:38.870Z,8.40
2022-11-24T02:23:08.501Z,9.85
2022-11-24T02:25:34.956Z,7.40
2022-11-24T02:28:02.357Z,8.15
2022-11-24T02:30:28.816Z,8.98
2022-11-24T02:32:55.461Z,10.80
2022-11-24T02:35:22.316Z,8.07
2022-11-24T02:37:48.742Z,7.20
2022-11-24T02:40:16.621Z,11.57
2022-11-24T02:42:44.516Z,9.27
2022-11-24T02:45:11.377Z,8.98
2022-11-24T02:47:37.846Z,9.65
2022-11-24T02:50:04.431Z,8.88
2022-11-24T02:52:31.008Z,10.98
2022-11-24T02:54:57.421Z,10.55
2022-11-24T02:57:23.846Z,8.98
2022-11-24T02:59:50.494Z,9.70
2022-11-24T03:02:17.031Z,7.97
2022-11-24T03:04:44.761Z,10.40
2022-11-24T03:07:11.241Z,8.82
2022-11-24T03:09:37.700Z,8.13
2022-11-24T03:12:04.230Z,9.98
2022-11-24T03:14:30.759Z,8.50
2022-11-24T03:16:57.305Z,11.63
2022-11-24T03:19:23.709Z,9.13
2022-11-24T03:21:50.208Z,10.27
2022-11-24T03:24:16.690Z,10.52
2022-11-24T03:26:43.098Z,8.88
2022-11-24T03:29:12.571Z,9.10
2022-11-24T03:31:39.049Z,9.40
2022-11-24T03:34:05.505Z,10.48
2022-11-24T03:36:31.969Z,10.13
2022-11-24T03:38:58.430Z,9.02
2022-11-24T03:41:24.906Z,10.13
2022-11-24T03:43:51.438Z,8.68
2022-11-24T03:46:17.904Z,7.50
2022-11-24T03:48:44.593Z,9.35
2022-11-24T03:51:11.039Z,9.23
2022-11-24T03:53:37.751Z,10.88
2022-11-24T03:56:04.258Z,7.47
2022-11-24T03:58:30.834Z,9.45
2022-11-24T04:00:57.610Z,7.85
2022-11-24T04:03:24.487Z,10.15
2022-11-24T04:05:51.029Z,9.25
2022-11-24T04:08:17.962Z,8.90
2022-11-24T04:10:44.404Z,12.32
2022-11-24T04:13:12.324Z,8.70
2022-11-24T04:15:41.896Z,7.28
2022-11-24T04:18:08.716Z,10.18
2022-11-24T04:20:35.264Z,10.63
2022-11-24T04:23:01.916Z,8.70
2022-11-24T04:25:28.639Z,7.82
2022-11-24T04:27:55.605Z,12.07
2022-11-24T04:30:22.933Z,9.40
2022-11-24T04:32:49.495Z,9.52
2022-11-24T04:35:15.911Z,13.00
2022-11-24T04:37:42.457Z,9.73
2022-11-24T04:40:09.786Z,8.05
2022-11-24T04:42:36.206Z,8.05
2022-11-24T04:45:03.104Z,9.65
2022-11-24T04:47:31.721Z,9.10
2022-11-24T04:49:58.290Z,10.95
2022-11-24T04:52:25.305Z,8.43
2022-11-24T04:54:51.933Z,9.15
2022-11-24T04:57:19.598Z,10.88
2022-11-24T04:59:46.000Z,9.80
2022-11-24T05:02:12.874Z,12.95
2022-11-24T05:04:39.829Z,7.28
2022-11-24T05:07:06.519Z,9.20
2022-11-24T05:09:55.256Z,9.02
2022-11-24T05:12:23.454Z,10.95
2022-11-24T05:14:50.203Z,10.13
2022-11-24T05:17:16.578Z,11.05
2022-11-24T05:19:42.935Z,12.82
2022-11-24T05:22:09.377Z,10.73
2022-11-24T05:24:35.906Z,10.70
2022-11-24T05:27:02.419Z,11.05
2022-11-24T05:29:30.642Z,9.50
2022-11-24T05:31:56.994Z,10.20
2022-11-24T05:34:23.376Z,12.63
2022-11-24T05:36:52.841Z,11.05
2022-11-24T05:39:19.348Z,12.02
2022-11-24T05:41:45.983Z,13.48
2022-11-24T05:44:12.349Z,14.57
2022-11-24T05:46:38.765Z,13.43
2022-11-24T05:49:05.164Z,15.38
2022-11-24T05:51:33.322Z,11.85
2022-11-24T05:53:59.764Z,13.75
2022-11-24T05:56:26.141Z,14.40
2022-11-24T05:58:52.731Z,12.25
2022-11-24T06:01:19.088Z,14.63
2022-11-24T06:03:45.433Z,13.63
2022-11-24T06:06:11.822Z,12.77
2022-11-24T06:08:38.145Z,13.40
2022-11-24T06:11:19.753Z,13.00
2022-11-24T06:13:47.121Z,13.98
2022-11-24T06:16:13.645Z,13.27
2022-11-24T06:18:40.233Z,15.52
2022-11-24T06:21:11.602Z,14.43
2022-11-24T06:23:38.646Z,11.10
2022-11-24T06:26:05.299Z,14.13
2022-11-24T06:28:31.846Z,14.60
2022-11-24T06:31:04.978Z,14.93
2022-11-24T06:33:34.939Z,13.77
2022-11-24T06:36:02.567Z,12.43
2022-11-24T06:38:29.032Z,13.32
2022-11-24T06:41:02.741Z,13.85
2022-11-24T06:43:29.620Z,13.30
2022-11-24T06:45:56.515Z,14.77
2022-11-24T06:48:23.418Z,12.68
2022-11-24T06:50:49.873Z,14.02
2022-11-24T06:53:16.313Z,14.25
2022-11-24T06:55:42.971Z,13.30
2022-11-24T06:58:09.323Z,13.98
2022-11-24T07:00:36.580Z,17.55
2022-11-24T07:03:03.000Z,12.90
2022-11-24T07:05:32.219Z,14.05
2022-11-24T07:08:01.926Z,11.68
2022-11-24T07:10:28.334Z,17.48
2022-11-24T07:12:54.824Z,15.23
2022-11-24T07:15:21.148Z,14.30
2022-11-24T07:17:47.676Z,13.25
2022-11-24T07:20:14.081Z,15.35
2022-11-24T07:22:43.478Z,13.60
2022-11-24T07:25:10.308Z,13.60
2022-11-24T07:27:37.087Z,15.05
2022-11-24T07:30:04.316Z,14.82
2022-11-24T07:32:30.948Z,13.40
2022-11-24T07:34:57.270Z,11.25
2022-11-24T07:37:28.123Z,17.27
2022-11-24T07:39:57.320Z,14.65
2022-11-24T07:42:23.664Z,15.45
2022-11-24T07:44:50.028Z,16.52
2022-11-24T07:47:16.345Z,15.23
2022-11-24T07:49:42.729Z,13.60
2022-11-24T07:52:09.476Z,13.70
2022-11-24T07:54:36.054Z,13.82
2022-11-24T07:57:02.816Z,13.05
2022-11-24T07:59:29.141Z,14.80
2022-11-24T08:01:55.534Z,13.43
2022-11-24T08:04:22.016Z,13.88
2022-11-24T08:06:48.351Z,13.48
2022-11-24T08:09:14.912Z,13.88
2022-11-24T08:11:41.488Z,12.35
2022-11-24T08:14:07.923Z,19.10
2022-11-24T08:16:34.302Z,13.00
2022-11-24T08:19:00.688Z,12.20
2022-11-24T08:21:30.050Z,12.32
2022-11-24T08:23:57.019Z,10.48
2022-11-24T08:26:24.919Z,10.32
2022-11-24T08:28:54.182Z,10.65
2022-11-24T08:31:20.530Z,13.07
2022-11-24T08:33:47.068Z,10.90
2022-11-24T08:36:14.596Z,12.13
2022-11-24T08:38:41.021Z,11.10
2022-11-24T08:41:09.079Z,8.98
2022-11-24T08:43:35.513Z,13.85
2022-11-24T08:46:02.859Z,12.85
2022-11-24T08:48:29.544Z,11.43
2022-11-24T08:50:58.520Z,15.18
2022-11-24T08:53:26.261Z,11.60
2022-11-24T08:55:52.620Z,11.98
2022-11-24T08:58:19.018Z,11.55
2022-11-24T09:00:45.369Z,9.45
2022-11-24T09:03:12.097Z,8.57
2022-11-24T09:05:54.194Z,10.48
2022-11-24T09:08:20.761Z,11.48
2022-11-24T09:10:47.405Z,11.32
2022-11-24T09:13:13.873Z,11.32
2022-11-24T09:15:40.303Z,10.73
2022-11-24T09:18:06.797Z,11.32
2022-11-24T09:20:33.166Z,7.63
2022-11-24T09:22:59.541Z,7.80
2022-11-24T09:25:25.864Z,11.55
2022-11-24T09:27:52.456Z,10.73
2022-11-24T09:30:18.944Z,8.02
2022-11-24T09:32:45.310Z,10.68
2022-11-24T09:35:11.663Z,8.00
2022-11-24T09:37:37.983Z,8.05
2022-11-24T09:40:04.667Z,10.52
2022-11-24T09:42:39.813Z,8.52
2022-11-24T09:45:42.026Z,8.50
2022-11-24T09:48:14.301Z,8.80
2022-11-24T09:50:49.612Z,5.97
2022-11-24T09:53:29.681Z,9.13
2022-11-24T09:56:00.314Z,7.67
2022-11-24T09:58:45.123Z,9.30
2022-11-24T10:01:14.590Z,8.32
2022-11-24T10:03:43.493Z,6.95
2022-11-24T10:06:34.778Z,7.30
2022-11-24T10:09:10.323Z,8.77
2022-11-24T10:11:39.646Z,7.45
2022-11-24T10:14:06.001Z,9.25
2022-11-24T10:16:41.566Z,9.48
2022-11-24T10:19:14.911Z,10.13
2022-11-24T10:22:08.424Z,7.10
2022-11-24T10:24:40.681Z,9.07
2022-11-24T10:27:18.254Z,9.20
2022-11-24T10:29:44.915Z,7.20
2022-11-24T10:32:16.606Z,8.65
2022-11-24T10:34:47.264Z,7.10
2022-11-24T10:37:16.909Z,12.13
2022-11-24T10:39:57.141Z,10.55
2022-11-24T10:42:27.814Z,7.85
2022-11-24T10:45:01.361Z,7.70
2022-11-24T10:47:28.359Z,8.48
2022-11-24T10:50:09.982Z,8.57
2022-11-24T10:52:44.857Z,11.35
2022-11-24T10:55:11.261Z,8.02
2022-11-24T10:57:38.852Z,10.07
2022-11-24T11:00:25.604Z,8.25
2022-11-24T11:03:10.412Z,7.38
2022-11-24T11:05:42.219Z,8.57
2022-11-24T11:08:14.674Z,8.18
2022-11-24T11:10:41.960Z,7.30
2022-11-24T11:13:27.145Z,8.07
2022-11-24T11:15:54.033Z,6.85
2022-11-24T11:18:20.987Z,9.23
2022-11-24T11:20:58.151Z,8.90
2022-11-24T11:23:34.778Z,9.00
2022-11-24T11:26:22.883Z,9.05
2022-11-24T11:34:39.928Z,8.40
2022-11-24T11:37:06.747Z,8.50
2022-11-24T11:39:34.946Z,8.70
2022-11-24T11:42:09.023Z,8.15
2022-11-24T11:44:37.913Z,11.10
2022-11-24T11:47:11.296Z,8.25
2022-11-24T11:49:38.238Z,10.07
2022-11-24T11:52:16.823Z,8.73
2022-11-24T11:55:02.075Z,7.82
2022-11-24T11:57:28.422Z,8.70
2022-11-24T12:00:13.043Z,7.65
2022-11-24T12:02:53.709Z,8.55
2022-11-24T12:08:09.188Z,7.60
2022-11-24T12:10:40.975Z,10.30
2022-11-24T12:13:10.427Z,9.15
2022-11-24T12:15:36.953Z,7.18
2022-11-24T12:18:48.613Z,11.38
2022-11-24T12:21:29.409Z,8.65
2022-11-24T12:24:25.129Z,11.20
2022-11-24T12:26:57.191Z,8.13
2022-11-24T12:29:44.477Z,9.15
2022-11-24T12:32:17.849Z,8.85
2022-11-24T12:34:52.449Z,10.13
2022-11-24T12:37:21.715Z,11.00
2022-11-24T12:40:01.031Z,9.02
2022-11-24T12:42:33.366Z,11.35
2022-11-24T12:45:06.460Z,10.30
2022-11-24T12:47:35.600Z,10.73
2022-11-24T12:50:17.317Z,11.30
2022-11-24T12:52:46.395Z,10.73
2022-11-24T12:55:15.034Z,12.48
2022-11-24T12:57:57.668Z,11.02
2022-11-24T13:00:29.399Z,13.25
2022-11-24T13:02:58.662Z,9.98
2022-11-24T13:05:40.140Z,12.95
2022-11-24T13:08:06.600Z,10.95
2022-11-24T13:13:19.720Z,10.20
2022-11-24T13:16:34.553Z,12.55
2022-11-24T13:18:47.709Z,17.02
2022-11-24T13:21:32.542Z,9.50
2022-11-24T13:23:59.903Z,12.68
2022-11-24T13:26:45.046Z,11.32
2022-11-24T13:29:33.568Z,9.45
2022-11-24T13:32:02.878Z,12.98
2022-11-24T13:34:42.705Z,8.57
2022-11-24T13:37:34.544Z,10.30
2022-11-24T13:40:14.068Z,15.00
2022-11-24T13:43:07.629Z,10.32
2022-11-24T13:45:40.681Z,11.00
2022-11-24T13:48:33.636Z,9.70
2022-11-24T13:51:02.808Z,13.55
2022-11-24T13:53:32.543Z,13.05
2022-11-24T13:56:00.191Z,12.18
2022-11-24T13:58:45.048Z,13.30
2022-11-24T14:01:13.192Z,12.45
2022-11-24T14:03:39.509Z,13.18
2022-11-24T14:06:06.019Z,11.57
2022-11-24T14:08:33.753Z,11.13
2022-11-24T14:11:01.311Z,11.75
2022-11-24T14:13:30.580Z,13.70
2022-11-24T14:16:08.913Z,12.60
2022-11-24T14:18:39.577Z,12.45
2022-11-24T14:21:35.256Z,11.82
2022-11-24T14:24:20.447Z,11.95
2022-11-24T14:26:49.446Z,13.98
2022-11-24T14:29:23.161Z,10.55
2022-11-24T14:31:53.140Z,10.63
2022-11-24T14:34:23.635Z,13.03
2022-11-24T14:36:56.705Z,11.57
2022-11-24T14:39:24.413Z,15.27
2022-11-24T14:41:52.422Z,15.45
2022-11-24T14:44:35.048Z,12.52
2022-11-24T14:47:05.885Z,14.52
2022-11-24T14:49:34.344Z,10.50
2022-11-24T14:52:02.264Z,10.95
2022-11-24T14:54:28.741Z,12.85
2022-11-24T14:56:59.689Z,12.73
2022-11-24T15:01:52.540Z,12.38
2022-11-24T15:07:12.978Z,11.88
2022-11-24T15:09:43.033Z,11.00
2022-11-24T15:12:17.668Z,13.03
2022-11-24T15:14:47.869Z,12.65
2022-11-24T15:17:21.933Z,12.15
2022-11-24T15:19:54.424Z,13.30
2022-11-24T15:22:47.148Z,13.88
2022-11-24T15:25:40.438Z,13.15
2022-11-24T15:28:07.958Z,14.82
2022-11-24T15:30:35.356Z,12.90
2022-11-24T15:33:01.678Z,13.20
2022-11-24T15:35:32.070Z,13.40
2022-11-24T15:38:00.849Z,14.00
2022-11-24T15:40:27.224Z,17.63
2022-11-24T15:42:54.911Z,13.77
2022-11-24T15:45:22.350Z,14.68
2022-11-24T15:47:48.716Z,13.88
2022-11-24T15:50:15.501Z,17.95
2022-11-24T15:52:42.402Z,14.90
2022-11-24T15:55:19.276Z,11.23
2022-11-24T15:57:45.989Z,15.82
2022-11-24T16:00:16.467Z,18.20
2022-11-24T16:02:42.843Z,14.00
2022-11-24T16:05:09.608Z,13.13
2022-11-24T16:07:36.005Z,14.48
2022-11-24T16:10:02.407Z,17.90
2022-11-24T16:12:28.825Z,14.02
2022-11-24T16:14:55.203Z,14.23
2022-11-24T16:17:21.541Z,16.00
2022-11-24T16:19:53.320Z,16.20
2022-11-24T16:22:26.294Z,11.18
2022-11-24T16:24:52.746Z,16.88
2022-11-24T16:27:19.214Z,17.52
2022-11-24T16:29:45.556Z,12.63
2022-11-24T16:32:11.864Z,13.27
2022-11-24T16:34:38.211Z,18.05
2022-11-24T16:37:04.560Z,17.00
2022-11-24T16:39:31.039Z,12.30
2022-11-24T16:41:57.649Z,11.15
2022-11-24T16:44:23.970Z,15.35
2022-11-24T16:46:50.358Z,11.70
2022-11-24T16:49:17.011Z,13.65
2022-11-24T16:51:43.466Z,13.48
2022-11-24T16:54:11.339Z,12.55
2022-11-24T16:56:37.673Z,13.57
2022-11-24T16:59:04.022Z,15.85
2022-11-24T17:01:30.795Z,13.35
2022-11-24T17:03:59.255Z,12.18
2022-11-24T17:06:26.815Z,13.38
2022-11-24T17:08:54.944Z,14.18
2022-11-24T17:11:22.661Z,17.17
2022-11-24T17:13:49.486Z,11.93
2022-11-24T17:16:17.226Z,11.05
2022-11-24T17:18:46.941Z,14.60
2022-11-24T17:21:14.288Z,12.63
2022-11-24T17:23:41.020Z,19.73
2022-11-24T17:26:08.631Z,38.33
2022-11-24T17:28:35.242Z,18.10
2022-11-24T17:31:16.904Z,15.90
2022-11-24T17:33:43.559Z,15.63
2022-11-24T17:36:09.942Z,15.07
2022-11-24T17:38:36.855Z,16.83
2022-11-24T17:41:03.492Z,13.40
2022-11-24T17:43:29.865Z,12.25
2022-11-24T17:45:59.167Z,13.95
2022-11-24T17:48:25.736Z,14.48
2022-11-24T17:51:10.346Z,13.45
2022-11-24T17:53:37.629Z,12.05
2022-11-24T17:56:04.727Z,15.77
2022-11-24T17:58:37.181Z,11.75
2022-11-24T18:01:06.431Z,16.88
2022-11-24T18:03:32.841Z,11.80
2022-11-24T18:06:05.994Z,14.55
2022-11-24T18:08:33.165Z,16.27
2022-11-24T18:11:05.435Z,13.90
2022-11-24T18:13:55.231Z,13.65
2022-11-24T18:16:18.946Z,11.70
2022-11-24T18:18:50.077Z,15.32
2022-11-24T18:21:17.455Z,12.27
2022-11-24T18:23:43.905Z,14.38
2022-11-24T18:26:14.892Z,14.07
2022-11-24T18:28:41.676Z,10.68
2022-11-24T18:31:09.635Z,14.07
2022-11-24T18:33:37.964Z,11.35
2022-11-24T18:36:06.751Z,13.57
2022-11-24T18:38:38.774Z,12.55
2022-11-24T18:41:05.910Z,13.38
2022-11-24T18:43:32.661Z,13.82
2022-11-24T18:45:59.087Z,12.32
2022-11-24T18:48:26.046Z,17.30
2022-11-24T18:50:53.234Z,15.13
2022-11-24T18:53:20.243Z,15.10
2022-11-24T18:55:56.905Z,15.73
2022-11-24T18:58:23.498Z,12.18
2022-11-24T19:00:49.940Z,12.75
2022-11-24T19:03:16.630Z,12.43
2022-11-24T19:05:44.762Z,15.13
2022-11-24T19:08:11.144Z,14.77
2022-11-24T19:10:40.706Z,16.17
2022-11-24T19:13:07.068Z,13.35
2022-11-24T19:15:34.268Z,15.95
2022-11-24T19:18:01.275Z,14.52
2022-11-24T19:20:29.898Z,16.88
2022-11-24T19:22:56.339Z,12.65
2022-11-24T19:25:22.747Z,16.15
2022-11-24T19:27:49.181Z,14.63
2022-11-24T19:30:16.497Z,16.15
2022-11-24T19:32:42.937Z,13.82
2022-11-24T19:35:09.513Z,16.90
2022-11-24T19:37:35.853Z,15.85
2022-11-24T19:40:02.495Z,13.95
2022-11-24T19:42:28.860Z,17.38
2022-11-24T19:44:56.869Z,14.30
2022-11-24T19:47:23.405Z,15.68
2022-11-24T19:49:49.748Z,14.93
2022-11-24T19:52:16.241Z,13.80
2022-11-24T19:54:42.572Z,20.45
2022-11-24T19:57:08.970Z,17.38
2022-11-24T19:59:35.433Z,14.35
2022-11-24T20:02:04.899Z,17.98
2022-11-24T20:04:33.220Z,17.48
2022-11-24T20:07:00.449Z,17.75
2022-11-24T20:09:26.868Z,16.60
2022-11-24T20:11:53.262Z,15.50
2022-11-24T20:14:20.014Z,16.55
2022-11-24T20:16:47.745Z,18.23
2022-11-24T20:19:17.954Z,14.95
2022-11-24T20:21:47.707Z,17.60
2022-11-24T20:24:15.333Z,13.93
2022-11-24T20:26:43.210Z,13.27
2022-11-24T20:29:11.997Z,11.80
2022-11-24T20:31:43.656Z,15.50
2022-11-24T20:34:10.403Z,14.82
2022-11-24T20:36:38.403Z,15.30
2022-11-24T20:39:06.033Z,12.80
2022-11-24T20:41:33.848Z,15.07
2022-11-24T20:44:01.588Z,21.25
2022-11-24T20:46:31.696Z,14.05
2022-11-24T20:48:58.480Z,12.75
2022-11-24T20:51:26.382Z,15.07
2022-11-24T20:53:56.330Z,14.00
2022-11-24T20:56:24.949Z,16.27
2022-11-24T20:58:51.356Z,19.10
2022-11-24T21:01:22.245Z,15.38
2022-11-24T21:06:14.995Z,11.75
2022-11-24T21:08:42.092Z,15.50
2022-11-24T21:11:10.411Z,14.50
2022-11-24T21:13:37.523Z,14.75
2022-11-24T21:16:14.384Z,16.05
2022-11-24T21:18:40.784Z,15.95
2022-11-24T21:21:07.452Z,13.70
2022-11-24T21:23:33.864Z,12.43
2022-11-24T21:26:05.131Z,11.77
2022-11-24T21:28:32.119Z,14.75
2022-11-24T21:31:12.272Z,12.45
2022-11-24T21:33:45.898Z,13.45
2022-11-24T21:36:14.701Z,12.90
2022-11-24T21:38:41.929Z,10.05
2022-11-24T21:41:08.899Z,11.90
2022-11-24T21:43:35.682Z,13.15
2022-11-24T21:46:03.041Z,10.75
2022-11-24T21:48:30.274Z,11.88
2022-11-24T21:51:00.043Z,12.77
2022-11-24T21:53:26.738Z,12.20
2022-11-24T21:56:00.043Z,13.98
2022-11-24T21:58:27.597Z,10.27
2022-11-24T22:00:54.115Z,11.93
2022-11-24T22:03:20.839Z,11.35
2022-11-24T22:05:54.255Z,11.60
2022-11-24T22:08:21.118Z,13.10
2022-11-24T22:10:47.579Z,9.65
2022-11-24T22:13:14.285Z,12.75
2022-11-24T22:15:40.609Z,12.77
2022-11-24T22:18:09.423Z,14.60
2022-11-24T22:20:35.793Z,10.30
2022-11-24T22:23:02.274Z,15.00
2022-11-24T22:25:28.682Z,14.35
2022-11-24T22:27:54.978Z,12.65
2022-11-24T22:30:21.344Z,12.77
2022-11-24T22:32:47.729Z,13.75
2022-11-24T22:35:14.165Z,12.55
2022-11-24T22:37:40.484Z,12.07
2022-11-24T22:40:07.287Z,14.20
2022-11-24T22:42:33.745Z,9.77
2022-11-24T22:45:00.095Z,12.60
2022-11-24T22:47:26.454Z,13.35
2022-11-24T22:49:52.949Z,9.80
2022-11-24T22:52:19.457Z,10.02
2022-11-24T22:54:45.787Z,13.32
2022-11-24T22:57:12.125Z,11.38
2022-11-24T22:59:38.444Z,13.05
2022-11-24T23:02:04.890Z,13.25
2022-11-24T23:04:31.280Z,12.55
2022-11-24T23:06:57.578Z,10.48
2022-11-24T23:09:23.943Z,10.88
2022-11-24T23:11:50.315Z,11.73
2022-11-24T23:14:16.668Z,8.73
2022-11-24T23:16:43.287Z,12.60
2022-11-24T23:19:09.944Z,13.30
2022-11-24T23:21:38.432Z,12.77
2022-11-24T23:24:05.502Z,9.77
2022-11-24T23:26:33.291Z,15.80
2022-11-24T23:28:59.649Z,12.30
2022-11-24T23:31:29.816Z,14.93
2022-11-24T23:34:00.581Z,14.75
2022-11-24T23:36:27.042Z,14.00
2022-11-24T23:38:54.016Z,11.13
2022-11-24T23:41:21.948Z,11.07
2022-11-24T23:43:48.299Z,14.32
2022-11-24T23:46:15.928Z,15.98
2022-11-24T23:48:42.514Z,15.32
2022-11-24T23:51:11.713Z,14.05
2022-11-24T23:53:38.066Z,13.20
2022-11-24T23:56:04.961Z,14.77
2022-11-24T23:58:31.931Z,12.82
